La Sarnosa, Argentina
Current Conditions -  °F | °C
As of 9:00 PM on Monday 20 Oct 2014 (Local Time) from SARE Reporting Station
Clear Clear  
Wind Chill: 73°   Ceiling: Unl
Heat Index: 73°   Visibility: 6mi
Dew Point: 55°   Wind: 7mph
Humidity: 53%   Direction: 140°SE
Pressure: 30.03"   Gusts: NA
Location:  29.23°S, 60.42°W
Report Text: SARE 210000Z 14006KT CAVOK 23/13 Q1017
Loading
Personal Weather Stations






























Interactive Weather Map
Tropical Storm Tracking
New forecast layout! Learn more

10-Day Weather Forecast

Advertisements
Track Severe Weather on mobile